Terminal Aerodrome Forecast
Issued by NWS Albany, NY

Current Version | Previous Version | Text Only | Print | Product List | Glossary On
Versions: 1 2 3 4 5 6 7 8 9 10 11 12 13 14 15 16 17 18 19 20 21 22 23
000
FTUS41 KALY 021720
TAFALB
TAF
KALB 021720Z 0218/0318 31010KT P6SM SCT050
     FM030100 VRB03KT P6SM SKC
     FM030800 00000KT P6SM MIFG SKC
     FM031100 02005KT P6SM FEW050=

USA.gov is the U.S. government's official web portal to all federal, state and local government web resources and services.